Time;durP1;ratioP1;P1;durP2;ratioP2;P2;SDS_P1;SDS_P2;PMS_P1;PMS_P2;Temp;Humidity;BMP_temperature;BMP_pressure;BME280_temperature;BME280_humidity;BME280_pressure;Samples;Min_cycle;Max_cycle;Signal;HPM_P1;HPM_P2
2021/11/09 00:00:55;;;;;;;30.88;18.15;;;;;;;10.06;73.24;93777.13;4990756;28;20026;-59
2021/11/09 00:03:22;;;;;;;21.60;15.25;;;;;;;10.19;72.70;93777.84;4991524;28;20116;-58
2021/11/09 00:06:01;;;;;;;20.58;14.10;;;;;;;10.31;72.58;93768.00;4990468;28;20030;-58
2021/11/09 00:08:31;;;;;;;26.95;16.02;;;;;;;10.35;72.60;93768.41;4990620;28;20454;-58
2021/11/09 00:10:57;;;;;;;24.52;16.33;;;;;;;10.39;72.95;93766.06;4990291;28;20042;-59
2021/11/09 00:13:23;;;;;;;26.52;16.25;;;;;;;10.44;72.78;93753.38;4990383;28;20030;-59
2021/11/09 00:15:48;;;;;;;24.58;16.33;;;;;;;10.36;72.69;93758.13;4990771;28;20054;-59
2021/11/09 00:18:14;;;;;;;28.35;15.68;;;;;;;10.20;73.51;93745.50;4990724;28;20026;-59
2021/11/09 00:20:41;;;;;;;23.65;14.77;;;;;;;10.26;72.54;93735.78;4990611;28;20598;-59
2021/11/09 00:23:08;;;;;;;22.00;15.13;;;;;;;10.45;72.44;93730.78;4990594;28;20443;-58
2021/11/09 00:25:34;;;;;;;23.80;16.08;;;;;;;10.50;72.09;93731.91;4990698;28;20411;-55
2021/11/09 00:28:00;;;;;;;23.40;14.85;;;;;;;10.54;71.93;93735.06;4990341;28;20118;-53
2021/11/09 00:30:26;;;;;;;24.13;14.68;;;;;;;10.57;71.53;93736.75;4990213;28;20109;-59
2021/11/09 00:32:53;;;;;;;22.70;14.30;;;;;;;10.42;72.00;93753.19;4990183;28;20030;-52
2021/11/09 00:35:21;;;;;;;18.00;12.70;;;;;;;10.42;71.27;93761.47;4990518;28;20034;-58
2021/11/09 00:37:47;;;;;;;18.45;13.00;;;;;;;10.39;71.54;93766.06;4990584;28;20054;-51
2021/11/09 00:40:14;;;;;;;20.48;13.50;;;;;;;10.14;71.77;93761.41;4990564;28;20036;-50
2021/11/09 00:42:40;;;;;;;22.70;13.73;;;;;;;9.54;73.69;93748.50;4972712;28;20483;-50
2021/11/09 00:45:07;;;;;;;25.63;16.02;;;;;;;9.37;75.37;93742.59;5002622;28;20026;-47
2021/11/09 00:47:33;;;;;;;23.75;16.30;;;;;;;9.40;75.21;93730.50;5010040;28;20030;-48
2021/11/09 00:49:59;;;;;;;22.80;14.82;;;;;;;9.25;74.92;93700.03;5008989;28;20539;-53
2021/11/09 00:52:24;;;;;;;22.65;15.10;;;;;;;9.29;74.89;93730.72;5009373;28;20388;-48
2021/11/09 00:54:50;;;;;;;25.67;16.73;;;;;;;9.41;75.22;93737.50;5009877;28;20022;-50
2021/11/09 00:57:15;;;;;;;22.20;15.77;;;;;;;9.49;74.99;93737.56;5009832;28;20045;-48
2021/11/09 00:59:41;;;;;;;24.20;15.27;;;;;;;9.43;75.36;93734.94;5012489;28;20499;-50
2021/11/09 01:02:07;;;;;;;26.23;17.20;;;;;;;9.37;74.99;93714.31;5013164;28;20125;-46
2021/11/09 01:04:33;;;;;;;26.17;15.98;;;;;;;9.54;74.83;93742.97;5012740;28;20505;-46
2021/11/09 01:06:59;;;;;;;30.33;16.15;;;;;;;9.60;74.41;93729.81;5013279;28;20422;-49
2021/11/09 01:09:24;;;;;;;26.80;16.95;;;;;;;9.42;74.50;93721.72;5013293;28;20033;-48
2021/11/09 01:11:51;;;;;;;25.92;16.65;;;;;;;9.47;74.11;93718.81;5013252;28;20030;-48
2021/11/09 01:14:19;;;;;;;25.10;15.00;;;;;;;9.53;73.45;93716.69;5012901;28;20121;-47
2021/11/09 01:16:45;;;;;;;28.60;16.45;;;;;;;9.46;73.30;93724.88;5013198;28;20026;-47
2021/11/09 01:19:11;;;;;;;24.45;16.17;;;;;;;9.34;73.64;93726.38;5012761;28;20104;-47
2021/11/09 01:21:37;;;;;;;22.65;16.38;;;;;;;9.23;74.33;93716.34;5013216;28;20018;-49
2021/11/09 01:24:03;;;;;;;25.50;16.13;;;;;;;9.35;74.35;93733.38;5013094;28;20104;-47
2021/11/09 01:26:29;;;;;;;23.50;14.80;;;;;;;9.39;73.58;93712.50;5012924;28;20026;-49
2021/11/09 01:28:58;;;;;;;25.48;14.70;;;;;;;9.27;74.39;93707.78;5012978;28;20038;-49
2021/11/09 01:31:23;;;;;;;23.10;15.60;;;;;;;9.36;74.30;93707.28;5005792;28;20125;-48
2021/11/09 01:33:50;;;;;;;20.88;13.13;;;;;;;9.40;73.69;93707.72;5012927;28;20184;-49
2021/11/09 01:36:16;;;;;;;19.42;13.43;;;;;;;9.44;73.24;93703.34;5012854;28;20040;-48
2021/11/09 01:38:42;;;;;;;20.42;13.52;;;;;;;9.39;73.75;93695.97;5012727;28;20030;-47
2021/11/09 01:41:08;;;;;;;20.73;13.43;;;;;;;9.38;74.29;93702.75;5012259;28;20048;-49
2021/11/09 01:43:35;;;;;;;22.60;13.90;;;;;;;9.43;73.65;93704.63;5012735;28;20034;-47
2021/11/09 01:46:01;;;;;;;22.33;13.07;;;;;;;9.52;73.21;93722.72;5012636;28;20030;-48
2021/11/09 01:48:27;;;;;;;22.83;13.15;;;;;;;9.45;72.46;93726.13;5012377;28;20030;-49
2021/11/09 01:50:56;;;;;;;20.70;14.00;;;;;;;9.35;72.47;93728.63;5012406;28;20499;-47
2021/11/09 01:53:23;;;;;;;24.50;14.93;;;;;;;9.28;73.16;93739.53;5012394;28;20168;-49
2021/11/09 01:55:49;;;;;;;21.88;13.77;;;;;;;9.21;73.27;93753.97;5012455;28;20462;-49
2021/11/09 01:58:15;;;;;;;23.30;13.77;;;;;;;8.83;73.76;93750.72;5012457;28;20025;-48
2021/11/09 02:00:51;;;;;;;23.65;13.48;;;;;;;8.80;73.51;93758.03;5011881;28;20037;-53
2021/11/09 02:03:17;;;;;;;21.73;14.57;;;;;;;8.37;75.47;93760.34;5011627;28;20513;-51
2021/11/09 02:05:43;;;;;;;26.52;15.13;;;;;;;8.53;75.07;93764.81;5012325;28;20029;-49
2021/11/09 02:08:08;;;;;;;20.40;14.32;;;;;;;8.56;74.59;93774.00;5011941;28;20044;-53
2021/11/09 02:10:37;;;;;;;21.33;14.60;;;;;;;8.74;74.11;93781.44;5011911;28;20057;-56
2021/11/09 02:13:03;;;;;;;19.95;14.13;;;;;;;8.84;74.00;93783.22;5011759;28;20105;-53
2021/11/09 02:15:30;;;;;;;23.88;13.60;;;;;;;8.78;74.32;93788.09;5012127;28;20025;-54
2021/11/09 02:17:57;;;;;;;23.10;13.52;;;;;;;8.75;73.88;93788.44;5012105;28;20160;-51
2021/11/09 02:20:26;;;;;;;19.98;13.40;;;;;;;8.69;73.36;93785.75;5011645;28;20032;-52
2021/11/09 02:22:51;;;;;;;18.17;11.77;;;;;;;8.77;73.56;93786.59;5011597;28;20022;-56
2021/11/09 02:25:20;;;;;;;21.08;12.50;;;;;;;8.79;73.44;93784.06;5011601;28;20025;-56
2021/11/09 02:27:46;;;;;;;19.42;13.00;;;;;;;8.85;74.31;93787.47;5011956;28;20025;-57
2021/11/09 02:30:14;;;;;;;24.67;14.18;;;;;;;8.98;74.04;93795.00;5011783;28;20041;-57
2021/11/09 02:32:40;;;;;;;25.85;15.73;;;;;;;8.94;73.87;93781.53;5011604;28;20044;-57
2021/11/09 02:35:08;;;;;;;21.10;13.60;;;;;;;9.10;73.78;93804.50;5011680;28;20046;-58
2021/11/09 02:37:33;;;;;;;22.13;14.07;;;;;;;9.05;73.51;93808.13;5011130;28;20117;-58
2021/11/09 02:39:59;;;;;;;21.42;14.40;;;;;;;8.91;74.06;93799.13;5011750;28;20112;-57
2021/11/09 02:42:31;;;;;;;22.25;15.10;;;;;;;8.94;74.51;93806.31;5011252;28;20518;-57
2021/11/09 02:45:09;;;;;;;21.48;14.55;;;;;;;8.70;74.95;93812.03;5011247;28;20471;-56
2021/11/09 02:47:56;;;;;;;27.38;18.50;;;;;;;8.47;76.27;93807.44;5011715;28;20021;-55
2021/11/09 02:50:25;;;;;;;27.63;16.52;;;;;;;8.44;76.85;93814.00;5011455;28;20411;-58
2021/11/09 02:53:04;;;;;;;23.23;16.30;;;;;;;8.46;77.48;93803.19;5018360;28;20091;-55
2021/11/09 03:01:13;;;;;;;27.38;16.55;;;;;;;9.09;75.80;93819.56;5011022;28;20635;-58
2021/11/09 03:03:54;;;;;;;29.15;17.77;;;;;;;9.05;75.00;93814.38;5010638;28;20084;-58
2021/11/09 03:11:33;;;;;;;25.83;15.45;;;;;;;9.15;75.68;93831.97;5011042;28;20040;-55
2021/11/09 03:14:00;;;;;;;27.30;16.45;;;;;;;9.06;76.13;93826.88;5010776;28;20033;-56
2021/11/09 03:16:31;;;;;;;25.27;15.55;;;;;;;9.15;77.30;93831.97;5010687;28;20029;-55
2021/11/09 03:19:06;;;;;;;25.13;16.30;;;;;;;9.21;77.29;93839.38;5010693;28;20064;-55
2021/11/09 03:46:30;;;;;;;18.63;12.07;;;;;;;9.23;78.68;93823.03;5010395;28;20036;-54
2021/11/09 03:48:56;;;;;;;19.17;12.25;;;;;;;9.43;78.38;93833.41;5010569;28;20029;-54
2021/11/09 03:51:21;;;;;;;25.23;13.63;;;;;;;9.56;77.83;93838.91;5010220;28;20215;-52
2021/11/09 03:53:48;;;;;;;19.45;13.75;;;;;;;9.65;77.42;93844.00;5010576;28;20026;-54
2021/11/09 03:56:25;;;;;;;23.65;14.43;;;;;;;9.63;77.84;93841.03;5010474;28;20064;-54
2021/11/09 03:58:52;;;;;;;26.15;16.58;;;;;;;9.73;77.81;93850.31;5010239;28;20491;-56
2021/11/09 04:01:26;;;;;;;22.65;16.63;;;;;;;9.63;78.05;93852.81;5010235;28;20061;-56
2021/11/09 04:06:39;;;;;;;29.00;19.35;;;;;;;9.65;78.46;93844.00;5010233;28;20088;-57
2021/11/09 04:09:19;;;;;;;36.75;23.33;;;;;;;9.42;79.41;93842.97;5010442;28;20025;-56
2021/11/09 04:14:36;;;;;;;28.80;20.00;;;;;;;9.55;79.63;93843.69;5010480;28;20080;-56
2021/11/09 04:17:39;;;;;;;32.72;21.10;;;;;;;9.74;78.77;93858.09;5010280;28;20423;-51
2021/11/09 04:19:54;;;;;;;27.77;18.23;;;;;;;9.82;78.30;93860.91;4995176;28;20030;-52
2021/11/09 04:30:31;;;;;;;29.38;19.00;;;;;;;9.63;79.01;93869.34;5010066;28;20034;-53
2021/11/09 05:12:17;;;;;;;38.95;21.10;;;;;;;9.54;79.57;93869.03;5013399;28;20026;-60
2021/11/09 05:14:42;;;;;;;38.92;21.42;;;;;;;9.61;79.11;93871.16;5013164;28;20030;-55
2021/11/09 05:17:07;;;;;;;39.55;21.92;;;;;;;9.59;79.23;93868.94;5013193;28;20441;-56
2021/11/09 05:19:33;;;;;;;37.95;22.38;;;;;;;9.73;78.26;93872.38;5009325;28;20030;-53
2021/11/09 05:21:58;;;;;;;39.72;23.77;;;;;;;9.80;78.68;93891.03;5013132;28;20052;-53
2021/11/09 05:24:24;;;;;;;31.48;20.10;;;;;;;9.86;78.53;93900.69;5012153;28;20026;-54
2021/11/09 05:26:49;;;;;;;25.55;17.00;;;;;;;9.88;78.08;93905.66;5001829;28;20026;-53
2021/11/09 05:29:15;;;;;;;27.33;15.27;;;;;;;9.79;77.70;93904.09;5012967;28;20164;-55
2021/11/09 05:31:42;;;;;;;27.25;16.20;;;;;;;9.75;77.34;93902.91;5012871;28;20036;-51
2021/11/09 05:34:08;;;;;;;25.52;16.08;;;;;;;9.77;77.77;93908.66;5012915;28;20034;-55
2021/11/09 05:36:38;;;;;;;22.02;14.07;;;;;;;9.80;77.54;93911.09;5012786;28;20036;-55
2021/11/09 05:39:10;;;;;;;24.88;15.45;;;;;;;9.71;77.37;93921.81;5012676;28;20034;-51
2021/11/09 05:41:38;;;;;;;28.00;16.80;;;;;;;9.56;78.58;93929.88;5012767;28;20026;-50
2021/11/09 05:44:06;;;;;;;25.95;15.80;;;;;;;9.59;78.13;93924.06;5012306;28;20073;-50
2021/11/09 05:46:33;;;;;;;24.73;15.67;;;;;;;9.63;77.86;93940.28;5012247;28;20558;-51
2021/11/09 05:48:58;;;;;;;28.05;14.40;;;;;;;9.61;77.95;93945.56;5012162;28;20079;-53
2021/11/09 05:51:24;;;;;;;53.28;15.90;;;;;;;9.36;78.10;93928.50;5012286;28;20484;-52
2021/11/09 05:53:49;;;;;;;27.48;15.75;;;;;;;9.62;78.77;93963.59;5022686;28;20018;-50
2021/11/09 05:56:15;;;;;;;23.77;14.02;;;;;;;9.72;78.19;93959.16;5010799;28;20104;-51
2021/11/09 05:58:40;;;;;;;25.20;14.80;;;;;;;9.92;76.61;93948.19;5012064;28;20068;-51
2021/11/09 06:01:06;;;;;;;25.15;16.52;;;;;;;9.88;76.55;93944.28;4994640;28;20076;-60
2021/11/09 06:03:31;;;;;;;24.95;16.70;;;;;;;9.87;77.32;93953.84;5011887;28;20072;-59
2021/11/09 06:05:57;;;;;;;26.67;17.30;;;;;;;9.77;77.82;93950.00;4996292;28;20503;-59
2021/11/09 06:08:22;;;;;;;27.52;16.50;;;;;;;9.92;77.59;93950.94;4991334;28;20480;-58
2021/11/09 06:10:48;;;;;;;25.33;15.02;;;;;;;9.69;77.70;93946.41;4992170;28;20437;-58
2021/11/09 06:13:14;;;;;;;26.52;17.25;;;;;;;9.96;77.17;93955.41;5011966;28;20056;-62
2021/11/09 06:15:39;;;;;;;29.45;15.80;;;;;;;10.06;76.69;93957.19;5008951;28;20555;-57
2021/11/09 06:18:06;;;;;;;24.73;14.82;;;;;;;9.94;77.25;93962.19;5008719;28;20400;-60
2021/11/09 06:20:31;;;;;;;22.42;14.93;;;;;;;9.97;76.53;93959.66;5008629;28;20029;-60
2021/11/09 06:22:57;;;;;;;27.17;16.40;;;;;;;10.11;75.95;93983.22;5008713;28;20030;-60
2021/11/09 06:25:23;;;;;;;26.95;15.98;;;;;;;10.11;76.61;94003.28;4992274;28;20045;-60
2021/11/09 06:27:49;;;;;;;40.17;19.58;;;;;;;10.27;76.23;94007.69;5009165;28;20541;-58
2021/11/09 06:30:14;;;;;;;32.08;20.15;;;;;;;10.31;76.21;94019.16;5008546;28;20674;-59
2021/11/09 06:32:40;;;;;;;35.42;17.33;;;;;;;10.30;75.81;94006.66;5008581;28;20021;-58
2021/11/09 06:35:06;;;;;;;34.00;19.70;;;;;;;10.41;75.48;94017.47;5008698;28;20026;-59
2021/11/09 06:37:33;;;;;;;34.08;19.73;;;;;;;10.21;76.01;94015.38;5008192;28;20511;-60
2021/11/09 06:39:59;;;;;;;30.02;18.13;;;;;;;10.23;76.06;94003.78;5008293;28;20038;-60
2021/11/09 06:42:24;;;;;;;40.85;23.60;;;;;;;10.38;76.16;94023.28;5007742;28;20092;-52
2021/11/09 06:44:50;;;;;;;27.38;17.45;;;;;;;10.36;75.36;94029.34;5008371;28;20030;-59
2021/11/09 06:47:15;;;;;;;34.85;20.65;;;;;;;10.07;76.65;94010.38;5008416;28;20084;-60
2021/11/09 06:49:41;;;;;;;30.27;17.08;;;;;;;9.91;77.60;94003.91;5008788;28;20561;-59
2021/11/09 06:52:07;;;;;;;27.60;18.58;;;;;;;9.90;77.78;94005.16;5009522;28;20450;-58
2021/11/09 06:54:34;;;;;;;27.55;17.95;;;;;;;9.80;78.12;93999.34;5020220;28;20076;-59
2021/11/09 06:56:59;;;;;;;28.48;17.90;;;;;;;9.87;78.12;93990.41;5007361;28;20485;-60
2021/11/09 06:59:25;;;;;;;29.85;17.27;;;;;;;9.83;78.04;93992.03;5008148;28;20065;-58
2021/11/09 07:01:50;;;;;;;37.05;19.25;;;;;;;9.90;78.18;93989.34;5007638;28;20042;-59
2021/11/09 07:04:16;;;;;;;26.05;16.98;;;;;;;10.04;78.07;93989.34;5023857;28;20036;-57
2021/11/09 07:06:42;;;;;;;28.00;17.23;;;;;;;10.11;77.47;93983.97;5027385;28;20072;-55
2021/11/09 07:09:09;;;;;;;28.77;18.23;;;;;;;10.19;77.31;93978.53;5027749;28;20029;-59
2021/11/09 07:11:35;;;;;;;33.20;18.77;;;;;;;10.11;77.14;93978.44;5027428;28;20034;-56
2021/11/09 07:14:00;;;;;;;30.42;18.40;;;;;;;10.18;77.39;93994.34;5027418;28;20037;-59
2021/11/09 07:16:27;;;;;;;29.85;19.10;;;;;;;10.24;77.35;93995.00;5013535;28;20096;-60
2021/11/09 07:18:59;;;;;;;32.15;17.90;;;;;;;10.30;76.99;94003.13;5007545;28;20037;-59
2021/11/09 07:21:25;;;;;;;32.67;18.75;;;;;;;10.47;76.64;94003.53;5007790;28;20080;-57
2021/11/09 07:23:51;;;;;;;27.75;18.55;;;;;;;10.49;76.44;94006.50;5008115;28;20037;-59
2021/11/09 07:26:17;;;;;;;58.42;19.80;;;;;;;10.66;75.72;94010.38;5006332;28;20038;-58
2021/11/09 07:28:45;;;;;;;27.45;17.00;;;;;;;10.80;75.60;94016.59;5006467;28;20033;-60
2021/11/09 07:31:12;;;;;;;32.72;17.92;;;;;;;10.75;74.60;94000.91;5006395;28;20034;-57
2021/11/09 07:33:38;;;;;;;28.10;18.30;;;;;;;10.86;74.30;93999.91;4999163;28;20045;-57
2021/11/09 07:36:03;;;;;;;29.35;19.15;;;;;;;10.89;73.78;94001.59;4996491;28;20038;-60
2021/11/09 07:38:29;;;;;;;32.92;17.45;;;;;;;11.04;73.02;93999.72;4997203;28;20503;-59
2021/11/09 07:40:54;;;;;;;32.00;18.90;;;;;;;11.05;73.42;94009.47;5006769;28;20061;-59
2021/11/09 07:43:20;;;;;;;29.00;18.35;;;;;;;11.03;72.92;94003.00;5006985;28;20038;-57
2021/11/09 07:45:47;;;;;;;31.40;19.33;;;;;;;11.09;73.13;94009.13;5007564;28;20141;-60
2021/11/09 07:48:15;;;;;;;32.83;19.05;;;;;;;11.10;73.02;94003.09;5007910;28;20069;-60
2021/11/09 07:50:41;;;;;;;31.85;18.83;;;;;;;11.01;73.36;94016.63;5007757;28;20503;-60
2021/11/09 07:53:12;;;;;;;42.28;23.90;;;;;;;10.94;73.36;94023.56;5010927;28;20081;-61
2021/11/09 07:55:47;;;;;;;40.72;22.05;;;;;;;11.11;73.26;94037.72;5003049;28;20033;-60
2021/11/09 07:58:20;;;;;;;26.08;17.38;;;;;;;11.17;73.53;94043.88;5007312;28;20034;-60
2021/11/09 08:00:54;;;;;;;34.17;20.58;;;;;;;11.19;72.79;94055.13;5007468;28;20030;-60
2021/11/09 08:03:23;;;;;;;35.20;19.13;;;;;;;11.20;72.50;94069.69;5005625;28;20061;-60
2021/11/09 08:08:23;;;;;;;30.33;18.40;;;;;;;11.28;72.39;94071.25;5009337;28;20049;-60
2021/11/09 08:10:48;;;;;;;33.45;19.40;;;;;;;11.27;72.90;94082.84;5004592;28;20037;-60
2021/11/09 08:13:14;;;;;;;36.97;19.65;;;;;;;11.23;72.87;94094.25;5011509;28;20018;-61
2021/11/09 08:15:40;;;;;;;39.45;17.40;;;;;;;11.28;72.54;94103.69;5005675;28;20519;-62
2021/11/09 08:18:06;;;;;;;35.53;20.45;;;;;;;11.20;73.52;94111.13;4993186;28;20030;-56
2021/11/09 08:20:32;;;;;;;29.67;18.92;;;;;;;11.23;72.94;94118.38;4991432;28;20022;-53
2021/11/09 08:22:58;;;;;;;39.17;20.85;;;;;;;11.25;73.16;94121.34;5006506;28;20481;-50
2021/11/09 08:25:23;;;;;;;43.63;21.63;;;;;;;11.14;72.93;94102.97;5011143;28;20030;-50
2021/11/09 08:27:49;;;;;;;53.90;29.27;;;;;;;11.11;73.48;94128.19;5011074;28;20405;-53
2021/11/09 08:30:17;;;;;;;35.90;23.15;;;;;;;11.07;73.77;94122.22;5010908;28;20034;-52
2021/11/09 08:32:45;;;;;;;46.03;25.70;;;;;;;11.23;73.44;94138.47;5011016;28;20129;-56
2021/11/09 08:35:12;;;;;;;37.72;20.27;;;;;;;11.23;73.33;94144.00;5007513;28;20456;-57
2021/11/09 08:37:38;;;;;;;40.10;21.83;;;;;;;11.03;74.27;94161.25;5002448;28;20119;-60
2021/11/09 08:40:11;;;;;;;43.78;22.55;;;;;;;10.98;74.78;94164.88;5012488;28;20029;-60
2021/11/09 08:42:42;;;;;;;57.85;37.42;;;;;;;10.99;75.10;94162.84;5018265;28;20022;-55
2021/11/09 08:45:14;;;;;;;39.17;23.25;;;;;;;10.83;75.60;94166.72;5010389;28;20037;-50
2021/11/09 08:47:45;;;;;;;42.72;23.75;;;;;;;10.80;76.41;94171.28;5010691;28;20029;-50
2021/11/09 08:50:13;;;;;;;34.42;20.38;;;;;;;10.93;76.09;94167.75;5010417;28;20087;-51
2021/11/09 08:52:39;;;;;;;42.28;26.38;;;;;;;10.91;76.37;94175.84;5010351;28;20018;-50
2021/11/09 08:58:13;;;;;;;41.40;27.13;;;;;;;10.79;76.93;94166.28;5009966;28;20468;-49
2021/11/09 09:06:25;;;;;;;27.73;18.20;;;;;;;10.89;77.05;94154.28;5005693;28;20056;-54
2021/11/09 09:08:51;;;;;;;32.38;16.80;;;;;;;10.99;76.31;94140.75;5009076;28;20022;-58
2021/11/09 09:11:16;;;;;;;34.40;19.60;;;;;;;10.98;76.45;94153.81;4991553;28;20030;-49
2021/11/09 09:13:42;;;;;;;35.40;20.35;;;;;;;10.96;76.70;94150.84;4990640;28;20411;-50
2021/11/09 09:16:07;;;;;;;34.88;18.20;;;;;;;10.92;76.42;94147.66;4990405;28;20026;-48
2021/11/09 09:18:33;;;;;;;36.25;19.25;;;;;;;10.95;76.46;94132.06;4999630;28;20026;-48
2021/11/09 09:21:08;;;;;;;32.63;18.83;;;;;;;11.02;76.15;94123.84;5008682;28;20196;-50
2021/11/09 09:23:36;;;;;;;26.85;18.30;;;;;;;11.05;76.32;94125.53;5009476;28;20026;-47
2021/11/09 09:26:15;;;;;;;30.95;20.75;;;;;;;11.07;76.29;94133.28;5009376;28;20025;-50
2021/11/09 09:54:22;;;;;;;27.95;15.82;;;;;;;10.92;75.64;94172.53;5011058;28;20079;-53
2021/11/09 09:56:32;;;;;;;37.15;19.23;;;;;;;10.90;75.78;94183.38;5003401;28;20046;-55
2021/11/09 09:59:00;;;;;;;33.67;16.88;;;;;;;10.85;75.77;94191.78;5009530;28;20419;-54
2021/11/09 10:01:27;;;;;;;24.90;15.65;;;;;;;10.79;75.80;94180.09;5008989;28;20049;-54
2021/11/09 10:03:54;;;;;;;30.70;17.95;;;;;;;10.89;75.50;94175.63;5008663;28;20117;-54
2021/11/09 10:06:20;;;;;;;41.83;18.95;;;;;;;10.95;75.54;94181.78;5010872;28;20033;-51
2021/11/09 10:08:49;;;;;;;36.80;18.45;;;;;;;11.01;75.46;94194.22;5014352;28;20040;-48
2021/11/09 10:11:38;;;;;;;31.52;19.38;;;;;;;10.85;76.03;94200.81;4997153;28;20026;-53
2021/11/09 10:14:05;;;;;;;34.33;20.75;;;;;;;10.71;76.37;94204.84;4998250;28;20034;-56
2021/11/09 10:16:34;;;;;;;33.20;19.52;;;;;;;10.78;75.86;94200.72;5004651;28;20030;-50
2021/11/09 10:19:01;;;;;;;28.27;18.05;;;;;;;10.80;75.78;94211.97;5008065;28;20113;-50
2021/11/09 10:21:38;;;;;;;47.30;30.00;;;;;;;10.73;75.64;94229.19;5006057;28;20034;-50
2021/11/09 10:24:22;;;;;;;30.27;18.33;;;;;;;10.61;76.13;94245.94;5006498;28;20112;-50
2021/11/09 10:26:48;;;;;;;28.17;18.05;;;;;;;10.53;77.15;94242.34;5010230;28;20030;-49
2021/11/09 10:29:13;;;;;;;32.47;22.77;;;;;;;10.40;77.11;94234.03;4998029;28;20037;-51
2021/11/09 10:31:42;;;;;;;30.58;20.70;;;;;;;10.41;78.00;94232.03;4989678;28;20026;-58
2021/11/09 10:34:29;;;;;;;27.90;18.98;;;;;;;10.42;78.48;94225.22;4990931;28;20109;-50
2021/11/09 10:37:15;;;;;;;39.00;22.25;;;;;;;10.44;79.02;94219.91;4990816;28;20113;-55
2021/11/09 10:39:45;;;;;;;49.38;28.30;;;;;;;10.38;79.64;94227.56;4990637;28;20030;-57
2021/11/09 10:42:19;;;;;;;50.17;28.75;;;;;;;10.42;79.44;94234.25;4990408;28;20034;-47
2021/11/09 10:45:09;;;;;;;126.07;58.05;;;;;;;10.53;78.89;94244.34;5006651;28;20030;-54
2021/11/09 10:47:35;;;;;;;123.97;58.85;;;;;;;10.48;79.50;94231.41;5004073;28;20053;-49
2021/11/09 10:50:06;;;;;;;80.32;41.35;;;;;;;10.68;79.43;94235.56;4999479;28;20133;-50
2021/11/09 10:52:36;;;;;;;29.25;18.58;;;;;;;10.63;78.66;94228.88;5014052;28;20024;-54
2021/11/09 10:55:14;;;;;;;23.77;13.93;;;;;;;10.72;79.30;94219.41;5024585;28;20665;-51
2021/11/09 11:06:10;;;;;;;30.35;18.48;;;;;;;10.59;77.91;94222.91;5000662;28;20040;-49
2021/11/09 11:08:37;;;;;;;22.15;14.95;;;;;;;10.65;77.64;94246.38;5004302;28;20022;-48
2021/11/09 11:11:26;;;;;;;22.80;15.20;;;;;;;10.78;78.08;94253.19;5001124;28;20056;-50
2021/11/09 11:14:09;;;;;;;27.60;15.63;;;;;;;10.90;77.38;94255.22;5011289;28;20042;-48
2021/11/09 11:16:42;;;;;;;20.70;13.32;;;;;;;10.99;77.21;94243.00;5009810;28;20025;-50
2021/11/09 11:19:09;;;;;;;23.67;14.70;;;;;;;11.02;76.94;94259.22;5011082;28;20033;-50
2021/11/09 11:21:35;;;;;;;19.92;14.07;;;;;;;10.96;75.65;94261.38;5008313;28;20112;-54
2021/11/09 11:24:00;;;;;;;29.38;17.25;;;;;;;10.97;76.49;94262.13;4999992;28;20030;-47
2021/11/09 11:26:26;;;;;;;23.45;14.95;;;;;;;11.07;75.97;94252.88;5012140;28;20514;-49
2021/11/09 11:28:54;;;;;;;19.40;12.82;;;;;;;11.09;75.37;94247.53;5010408;28;20496;-50
2021/11/09 11:31:20;;;;;;;28.92;13.02;;;;;;;11.01;75.53;94254.25;5010558;28;20033;-50
2021/11/09 11:33:48;;;;;;;18.92;11.75;;;;;;;10.97;75.26;94253.81;5010782;28;20509;-51
2021/11/09 11:36:14;;;;;;;17.15;10.65;;;;;;;10.70;75.98;94274.44;5008663;28;20026;-50
2021/11/09 11:38:45;;;;;;;17.27;11.98;;;;;;;10.71;76.49;94282.19;5007237;28;20026;-49
2021/11/09 11:41:12;;;;;;;23.05;13.00;;;;;;;10.72;76.52;94283.66;4990693;28;20022;-51
2021/11/09 11:43:43;;;;;;;18.17;11.35;;;;;;;10.53;76.74;94292.03;4999193;28;20057;-48
2021/11/09 11:46:13;;;;;;;14.90;11.95;;;;;;;10.61;76.78;94290.13;5004494;28;20037;-49
2021/11/09 11:49:02;;;;;;;15.38;10.75;;;;;;;10.55;77.13;94275.69;4995360;28;20519;-50
2021/11/09 11:51:29;;;;;;;14.70;10.50;;;;;;;10.48;77.52;94275.59;5010559;28;20077;-50
2021/11/09 11:53:54;;;;;;;18.48;10.57;;;;;;;10.40;77.66;94286.47;5026012;28;20029;-50
2021/11/09 11:56:21;;;;;;;17.20;11.93;;;;;;;10.49;77.42;94296.38;5016830;28;20411;-49
2021/11/09 11:58:47;;;;;;;14.40;10.95;;;;;;;10.28;77.75;94287.94;5006898;28;20183;-49
2021/11/09 12:01:12;;;;;;;13.60;9.60;;;;;;;10.28;77.90;94289.97;5007679;28;20566;-51
2021/11/09 12:03:39;;;;;;;17.17;11.07;;;;;;;10.26;78.24;94279.47;4990127;28;20801;-50
2021/11/09 12:06:16;;;;;;;17.15;11.30;;;;;;;10.38;77.73;94289.03;5007962;28;20044;-51
2021/11/09 12:08:45;;;;;;;17.15;12.07;;;;;;;10.36;78.03;94302.63;5007817;28;20117;-50
2021/11/09 12:11:22;;;;;;;16.33;11.80;;;;;;;10.12;78.92;94311.03;5007423;28;20079;-51
2021/11/09 12:13:59;;;;;;;13.10;10.38;;;;;;;10.17;78.21;94315.72;4994858;28;20030;-50
2021/11/09 12:16:44;;;;;;;15.98;11.13;;;;;;;10.07;78.85;94330.41;5007059;28;20034;-50
2021/11/09 12:19:35;;;;;;;12.43;9.13;;;;;;;10.09;79.02;94327.88;5007846;28;20042;-51
2021/11/09 12:22:05;;;;;;;13.55;9.45;;;;;;;9.96;79.25;94327.81;4988780;28;20511;-55
2021/11/09 12:24:47;;;;;;;11.63;8.32;;;;;;;9.88;79.12;94330.41;4988104;28;20516;-51
2021/11/09 12:27:13;;;;;;;14.95;8.55;;;;;;;9.89;79.22;94345.69;4988207;28;20061;-48
2021/11/09 12:29:44;;;;;;;16.00;9.57;;;;;;;9.86;79.56;94349.50;4988478;28;20034;-50
2021/11/09 12:32:29;;;;;;;15.38;9.98;;;;;;;9.79;79.95;94358.34;4988203;28;20034;-52
2021/11/09 12:35:08;;;;;;;11.80;8.15;;;;;;;9.65;79.96;94362.31;4987756;28;20500;-50
2021/11/09 12:37:40;;;;;;;15.90;10.82;;;;;;;9.58;80.42;94360.91;4989168;28;20092;-53
2021/11/09 12:40:30;;;;;;;9.45;7.60;;;;;;;9.60;80.59;94372.16;5006979;28;20068;-49
2021/11/09 12:43:23;;;;;;;10.82;7.35;;;;;;;9.63;79.87;94362.09;5001059;28;20030;-49
2021/11/09 12:46:01;;;;;;;13.27;9.02;;;;;;;9.62;79.70;94363.34;4988215;28;20031;-50
2021/11/09 12:48:30;;;;;;;13.05;8.48;;;;;;;9.59;79.75;94369.91;4992328;28;20033;-51
2021/11/09 12:50:59;;;;;;;10.33;7.87;;;;;;;9.51;79.48;94369.00;5007274;28;20049;-54
2021/11/09 12:53:26;;;;;;;9.75;7.15;;;;;;;9.63;79.79;94381.41;5017820;28;20466;-51
2021/11/09 12:56:08;;;;;;;8.85;6.15;;;;;;;9.47;79.30;94383.06;5021753;28;20022;-47
2021/11/09 12:58:47;;;;;;;11.35;7.57;;;;;;;9.49;79.46;94388.06;5010945;28;20029;-52
2021/11/09 13:01:34;;;;;;;10.18;7.10;;;;;;;9.42;79.84;94385.91;5000544;28;20026;-53
2021/11/09 13:04:14;;;;;;;8.65;6.90;;;;;;;9.29;79.58;94405.81;5018251;28;20107;-59
2021/11/09 13:10:10;;;;;;;7.53;6.13;;;;;;;9.27;80.37;94407.63;5029349;28;20033;-65
2021/11/09 13:12:37;;;;;;;8.35;6.07;;;;;;;9.13;80.28;94410.25;5018693;28;20022;-61
2021/11/09 13:15:13;;;;;;;17.15;11.32;;;;;;;9.19;80.86;94415.69;5012216;28;20025;-63
2021/11/09 13:17:43;;;;;;;9.13;4.85;;;;;;;9.28;80.26;94423.63;5010781;28;20534;-64
2021/11/09 13:22:57;;;;;;;6.80;5.03;;;;;;;9.11;80.98;94432.06;5011263;28;20025;-63
2021/11/09 13:25:55;;;;;;;5.93;4.85;;;;;;;9.13;81.23;94429.53;5011294;28;20057;-64
2021/11/09 13:28:26;;;;;;;7.78;5.25;;;;;;;9.04;81.26;94432.63;5012637;28;20025;-64
2021/11/09 13:30:51;;;;;;;5.90;4.65;;;;;;;8.96;80.77;94444.72;5012987;28;20026;-64
2021/11/09 13:33:18;;;;;;;7.68;5.18;;;;;;;8.92;81.11;94441.50;5012563;28;20164;-65
2021/11/09 13:35:44;;;;;;;4.43;3.67;;;;;;;8.85;80.49;94462.09;5012664;28;20026;-63
2021/11/09 13:38:20;;;;;;;4.50;3.58;;;;;;;8.81;81.02;94447.88;5012856;28;20411;-63
2021/11/09 13:40:59;;;;;;;8.30;7.38;;;;;;;8.85;80.99;94442.81;5012784;28;20460;-63
2021/11/09 13:43:28;;;;;;;6.85;4.40;;;;;;;8.87;80.43;94445.81;5012793;28;20029;-64
2021/11/09 13:46:27;;;;;;;5.05;3.88;;;;;;;8.81;80.33;94442.34;5012479;28;20042;-63
2021/11/09 13:49:02;;;;;;;3.83;3.05;;;;;;;8.83;80.57;94434.31;5001184;28;20076;-63
2021/11/09 13:51:38;;;;;;;3.20;2.70;;;;;;;8.85;80.27;94444.81;5012588;28;20033;-62